Terminal Aerodrome Forecast
Issued by NWS Pittsburgh, PA

Current Version | Previous Version | Text Only | Print | Product List | Glossary On
Versions: 1 2 3 4 5 6 7 8 9 10 11 12 13 14 15 16 17 18 19 20 21 22 23 24 25 26 27 28 29 30
000
FTUS41 KPBZ 281727
TAFPIT
TAF
KPIT 281727Z 2818/2924 34010KT P6SM VCSH BKN006 BKN011
     FM282100 33012KT P6SM OVC010
     FM290200 34009KT P6SM BKN003
     FM290900 35005KT P6SM BKN015
     FM291700 36006KT P6SM FEW110=

USA.gov is the U.S. government's official web portal to all federal, state and local government web resources and services.